sensor_id;sensor_type;location;lat;lon;timestamp;temperature;humidity
36790;DHT22;22740;52.182;8.780;2023-04-05T00:00:56;1.50;99.90
36790;DHT22;22740;52.182;8.780;2023-04-05T00:06:59;1.40;99.90
36790;DHT22;22740;52.182;8.780;2023-04-05T00:13:03;1.30;99.90
36790;DHT22;22740;52.182;8.780;2023-04-05T00:19:05;1.10;99.90
36790;DHT22;22740;52.182;8.780;2023-04-05T00:25:07;1.20;99.90
36790;DHT22;22740;52.182;8.780;2023-04-05T00:31:10;1.20;99.90
36790;DHT22;22740;52.182;8.780;2023-04-05T00:37:12;1.10;99.90
36790;DHT22;22740;52.182;8.780;2023-04-05T00:43:15;1.00;99.90
36790;DHT22;22740;52.182;8.780;2023-04-05T00:49:17;0.90;99.90
36790;DHT22;22740;52.182;8.780;2023-04-05T00:55:19;1.00;99.90
36790;DHT22;22740;52.182;8.780;2023-04-05T01:01:22;0.90;99.90
36790;DHT22;22740;52.182;8.780;2023-04-05T01:07:57;1.00;99.90
36790;DHT22;22740;52.182;8.780;2023-04-05T01:14:00;1.00;99.90
36790;DHT22;22740;52.182;8.780;2023-04-05T01:20:05;0.90;99.90
36790;DHT22;22740;52.182;8.780;2023-04-05T01:38:31;0.80;99.90
36790;DHT22;22740;52.182;8.780;2023-04-05T01:44:34;0.80;99.90
36790;DHT22;22740;52.182;8.780;2023-04-05T01:50:36;0.70;99.90
36790;DHT22;22740;52.182;8.780;2023-04-05T01:56:38;0.70;99.90
36790;DHT22;22740;52.182;8.780;2023-04-05T02:02:40;0.70;99.90
36790;DHT22;22740;52.182;8.780;2023-04-05T02:08:42;0.70;99.90
36790;DHT22;22740;52.182;8.780;2023-04-05T02:14:44;0.60;99.90
36790;DHT22;22740;52.182;8.780;2023-04-05T02:20:47;0.60;99.90
36790;DHT22;22740;52.182;8.780;2023-04-05T02:26:49;0.70;99.90
36790;DHT22;22740;52.182;8.780;2023-04-05T02:32:52;0.60;99.90
36790;DHT22;22740;52.182;8.780;2023-04-05T02:38:54;0.70;99.90
36790;DHT22;22740;52.182;8.780;2023-04-05T02:44:56;0.50;99.90
36790;DHT22;22740;52.182;8.780;2023-04-05T02:50:58;0.40;99.90
36790;DHT22;22740;52.182;8.780;2023-04-05T02:57:00;0.30;99.90
36790;DHT22;22740;52.182;8.780;2023-04-05T03:03:03;0.20;99.90
36790;DHT22;22740;52.182;8.780;2023-04-05T03:09:04;0.20;99.90
36790;DHT22;22740;52.182;8.780;2023-04-05T03:15:08;0.10;99.90
36790;DHT22;22740;52.182;8.780;2023-04-05T03:21:10;0.10;99.90
36790;DHT22;22740;52.182;8.780;2023-04-05T03:27:12;0.20;99.90
36790;DHT22;22740;52.182;8.780;2023-04-05T03:33:16;0.20;99.90
36790;DHT22;22740;52.182;8.780;2023-04-05T03:39:18;0.20;99.90
36790;DHT22;22740;52.182;8.780;2023-04-05T03:45:20;0.20;99.90
36790;DHT22;22740;52.182;8.780;2023-04-05T03:51:25;0.00;99.90
36790;DHT22;22740;52.182;8.780;2023-04-05T03:57:28;0.10;99.90
36790;DHT22;22740;52.182;8.780;2023-04-05T04:03:30;-0.10;99.90
36790;DHT22;22740;52.182;8.780;2023-04-05T04:09:32;-0.20;99.90
36790;DHT22;22740;52.182;8.780;2023-04-05T04:15:34;-0.20;99.90
36790;DHT22;22740;52.182;8.780;2023-04-05T04:21:36;-0.30;99.90
36790;DHT22;22740;52.182;8.780;2023-04-05T04:27:41;-0.30;99.90
36790;DHT22;22740;52.182;8.780;2023-04-05T04:33:44;-0.30;99.90
36790;DHT22;22740;52.182;8.780;2023-04-05T04:39:48;-0.30;99.90
36790;DHT22;22740;52.182;8.780;2023-04-05T04:45:49;-0.50;99.90
36790;DHT22;22740;52.182;8.780;2023-04-05T04:51:55;-0.50;99.90
36790;DHT22;22740;52.182;8.780;2023-04-05T04:58:00;-0.50;99.90
36790;DHT22;22740;52.182;8.780;2023-04-05T05:04:02;-0.50;99.90
36790;DHT22;22740;52.182;8.780;2023-04-05T05:10:05;-0.50;99.90
36790;DHT22;22740;52.182;8.780;2023-04-05T05:16:08;-0.50;99.90
36790;DHT22;22740;52.182;8.780;2023-04-05T05:22:10;-0.10;99.90
36790;DHT22;22740;52.182;8.780;2023-04-05T05:28:12;1.90;99.90
36790;DHT22;22740;52.182;8.780;2023-04-05T05:34:13;3.10;99.90
36790;DHT22;22740;52.182;8.780;2023-04-05T05:40:18;3.40;99.90
36790;DHT22;22740;52.182;8.780;2023-04-05T05:46:20;3.00;99.90
36790;DHT22;22740;52.182;8.780;2023-04-05T05:52:22;2.70;99.90
36790;DHT22;22740;52.182;8.780;2023-04-05T05:58:24;2.30;99.90
36790;DHT22;22740;52.182;8.780;2023-04-05T06:04:26;3.90;99.90
36790;DHT22;22740;52.182;8.780;2023-04-05T06:10:31;4.40;99.90
36790;DHT22;22740;52.182;8.780;2023-04-05T06:16:33;4.00;99.90
36790;DHT22;22740;52.182;8.780;2023-04-05T06:22:37;3.50;99.90
36790;DHT22;22740;52.182;8.780;2023-04-05T06:28:40;2.90;99.90
36790;DHT22;22740;52.182;8.780;2023-04-05T06:34:42;3.10;99.90
36790;DHT22;22740;52.182;8.780;2023-04-05T06:40:47;3.10;99.90
36790;DHT22;22740;52.182;8.780;2023-04-05T06:46:48;3.30;99.90
36790;DHT22;22740;52.182;8.780;2023-04-05T06:52:50;3.50;99.90
36790;DHT22;22740;52.182;8.780;2023-04-05T06:58:52;3.60;99.90
36790;DHT22;22740;52.182;8.780;2023-04-05T07:04:54;3.50;99.90
36790;DHT22;22740;52.182;8.780;2023-04-05T07:11:01;3.50;99.90
36790;DHT22;22740;52.182;8.780;2023-04-05T07:17:04;3.80;99.90
36790;DHT22;22740;52.182;8.780;2023-04-05T07:23:09;4.00;99.90
36790;DHT22;22740;52.182;8.780;2023-04-05T07:29:11;4.30;99.90
36790;DHT22;22740;52.182;8.780;2023-04-05T07:35:13;4.70;99.90
36790;DHT22;22740;52.182;8.780;2023-04-05T07:41:15;5.00;99.90
36790;DHT22;22740;52.182;8.780;2023-04-05T07:47:19;5.30;99.90
36790;DHT22;22740;52.182;8.780;2023-04-05T07:53:21;5.60;99.90
36790;DHT22;22740;52.182;8.780;2023-04-05T07:59:23;5.70;99.90
36790;DHT22;22740;52.182;8.780;2023-04-05T08:05:26;5.90;99.90
36790;DHT22;22740;52.182;8.780;2023-04-05T08:11:29;5.90;99.90
36790;DHT22;22740;52.182;8.780;2023-04-05T08:17:31;6.00;99.90
36790;DHT22;22740;52.182;8.780;2023-04-05T08:23:33;6.40;99.90
36790;DHT22;22740;52.182;8.780;2023-04-05T08:29:35;6.40;99.90
36790;DHT22;22740;52.182;8.780;2023-04-05T08:35:37;6.50;99.90
36790;DHT22;22740;52.182;8.780;2023-04-05T08:41:40;6.70;99.90
36790;DHT22;22740;52.182;8.780;2023-04-05T08:47:48;6.70;99.90
36790;DHT22;22740;52.182;8.780;2023-04-05T08:53:53;7.00;99.90
36790;DHT22;22740;52.182;8.780;2023-04-05T08:59:55;7.30;99.90
36790;DHT22;22740;52.182;8.780;2023-04-05T09:05:58;7.50;99.90
36790;DHT22;22740;52.182;8.780;2023-04-05T09:12:03;7.00;99.90
36790;DHT22;22740;52.182;8.780;2023-04-05T09:18:05;7.10;99.90
36790;DHT22;22740;52.182;8.780;2023-04-05T09:24:33;7.40;99.90
36790;DHT22;22740;52.182;8.780;2023-04-05T09:30:36;7.70;99.90
36790;DHT22;22740;52.182;8.780;2023-04-05T09:36:43;7.90;99.90
36790;DHT22;22740;52.182;8.780;2023-04-05T09:42:46;7.60;99.90
36790;DHT22;22740;52.182;8.780;2023-04-05T09:48:49;7.90;99.90
36790;DHT22;22740;52.182;8.780;2023-04-05T09:54:53;8.40;99.90
36790;DHT22;22740;52.182;8.780;2023-04-05T10:00:59;8.80;99.90
36790;DHT22;22740;52.182;8.780;2023-04-05T10:07:18;8.50;99.90
36790;DHT22;22740;52.182;8.780;2023-04-05T10:13:21;9.30;99.90
36790;DHT22;22740;52.182;8.780;2023-04-05T10:19:44;8.70;99.90
36790;DHT22;22740;52.182;8.780;2023-04-05T10:25:53;8.60;99.90
36790;DHT22;22740;52.182;8.780;2023-04-05T10:32:03;8.20;99.90
36790;DHT22;22740;52.182;8.780;2023-04-05T10:38:26;7.80;99.90
36790;DHT22;22740;52.182;8.780;2023-04-05T10:44:33;8.20;99.90
36790;DHT22;22740;52.182;8.780;2023-04-05T10:50:37;7.80;99.90
36790;DHT22;22740;52.182;8.780;2023-04-05T10:56:39;7.80;99.90
36790;DHT22;22740;52.182;8.780;2023-04-05T11:02:42;8.00;99.90
36790;DHT22;22740;52.182;8.780;2023-04-05T11:08:46;8.80;99.90
36790;DHT22;22740;52.182;8.780;2023-04-05T11:14:48;8.70;99.90
36790;DHT22;22740;52.182;8.780;2023-04-05T11:21:05;9.20;99.90
36790;DHT22;22740;52.182;8.780;2023-04-05T11:27:08;10.10;99.90
36790;DHT22;22740;52.182;8.780;2023-04-05T11:33:10;10.00;99.90
36790;DHT22;22740;52.182;8.780;2023-04-05T11:45:22;9.90;99.90
36790;DHT22;22740;52.182;8.780;2023-04-05T11:51:25;9.60;99.90
36790;DHT22;22740;52.182;8.780;2023-04-05T11:57:30;9.80;99.90
36790;DHT22;22740;52.182;8.780;2023-04-05T12:03:34;9.30;99.90
36790;DHT22;22740;52.182;8.780;2023-04-05T12:09:54;10.10;99.90
36790;DHT22;22740;52.182;8.780;2023-04-05T12:16:02;10.40;99.90
36790;DHT22;22740;52.182;8.780;2023-04-05T12:22:04;9.30;99.90
36790;DHT22;22740;52.182;8.780;2023-04-05T12:28:06;9.50;99.90
36790;DHT22;22740;52.182;8.780;2023-04-05T12:34:11;8.40;99.90
36790;DHT22;22740;52.182;8.780;2023-04-05T12:40:18;8.60;99.90
36790;DHT22;22740;52.182;8.780;2023-04-05T12:46:20;9.10;99.90
36790;DHT22;22740;52.182;8.780;2023-04-05T12:52:22;9.30;99.90
36790;DHT22;22740;52.182;8.780;2023-04-05T12:58:36;9.90;99.90
36790;DHT22;22740;52.182;8.780;2023-04-05T13:04:39;10.40;99.90
36790;DHT22;22740;52.182;8.780;2023-04-05T13:10:41;10.40;99.90
36790;DHT22;22740;52.182;8.780;2023-04-05T13:16:43;10.70;99.90
36790;DHT22;22740;52.182;8.780;2023-04-05T13:22:46;11.10;99.90
36790;DHT22;22740;52.182;8.780;2023-04-05T13:28:49;10.70;99.90
36790;DHT22;22740;52.182;8.780;2023-04-05T13:34:50;11.10;99.90
36790;DHT22;22740;52.182;8.780;2023-04-05T13:40:52;10.00;99.90
36790;DHT22;22740;52.182;8.780;2023-04-05T13:46:54;10.70;99.90
36790;DHT22;22740;52.182;8.780;2023-04-05T13:52:56;11.20;99.90
36790;DHT22;22740;52.182;8.780;2023-04-05T13:58:58;10.40;99.90
36790;DHT22;22740;52.182;8.780;2023-04-05T14:05:01;10.00;99.90
36790;DHT22;22740;52.182;8.780;2023-04-05T14:11:02;9.80;99.90
36790;DHT22;22740;52.182;8.780;2023-04-05T14:17:04;9.20;99.90
36790;DHT22;22740;52.182;8.780;2023-04-05T14:23:07;8.70;99.90
36790;DHT22;22740;52.182;8.780;2023-04-05T14:29:10;9.30;99.90
36790;DHT22;22740;52.182;8.780;2023-04-05T14:35:12;9.30;99.90
36790;DHT22;22740;52.182;8.780;2023-04-05T14:41:14;9.50;99.90
36790;DHT22;22740;52.182;8.780;2023-04-05T14:47:16;9.80;99.90
36790;DHT22;22740;52.182;8.780;2023-04-05T14:53:18;10.10;99.90
36790;DHT22;22740;52.182;8.780;2023-04-05T14:59:20;10.80;99.90
36790;DHT22;22740;52.182;8.780;2023-04-05T15:05:22;11.00;99.90
36790;DHT22;22740;52.182;8.780;2023-04-05T15:11:24;11.60;99.90
36790;DHT22;22740;52.182;8.780;2023-04-05T15:17:26;11.50;99.90
36790;DHT22;22740;52.182;8.780;2023-04-05T15:23:28;11.30;99.90
36790;DHT22;22740;52.182;8.780;2023-04-05T15:29:31;11.80;99.90
36790;DHT22;22740;52.182;8.780;2023-04-05T15:35:35;12.10;99.90
36790;DHT22;22740;52.182;8.780;2023-04-05T15:41:37;11.80;99.90
36790;DHT22;22740;52.182;8.780;2023-04-05T15:47:39;11.00;99.90
36790;DHT22;22740;52.182;8.780;2023-04-05T15:53:41;10.10;99.90
36790;DHT22;22740;52.182;8.780;2023-04-05T15:59:43;10.10;99.90
36790;DHT22;22740;52.182;8.780;2023-04-05T16:05:45;10.20;99.90
36790;DHT22;22740;52.182;8.780;2023-04-05T16:11:47;11.10;99.90
36790;DHT22;22740;52.182;8.780;2023-04-05T16:17:49;10.10;99.90
36790;DHT22;22740;52.182;8.780;2023-04-05T16:23:51;10.00;99.90
36790;DHT22;22740;52.182;8.780;2023-04-05T16:29:53;10.00;99.90
36790;DHT22;22740;52.182;8.780;2023-04-05T16:35:55;10.20;99.90
36790;DHT22;22740;52.182;8.780;2023-04-05T16:41:57;10.00;99.90
36790;DHT22;22740;52.182;8.780;2023-04-05T16:48:01;10.80;99.90
36790;DHT22;22740;52.182;8.780;2023-04-05T16:54:03;10.00;99.90
36790;DHT22;22740;52.182;8.780;2023-04-05T17:00:05;9.70;99.90
36790;DHT22;22740;52.182;8.780;2023-04-05T17:06:07;9.70;99.90
36790;DHT22;22740;52.182;8.780;2023-04-05T17:12:11;10.30;99.90
36790;DHT22;22740;52.182;8.780;2023-04-05T17:18:13;9.60;99.90
36790;DHT22;22740;52.182;8.780;2023-04-05T17:24:15;9.20;99.90
36790;DHT22;22740;52.182;8.780;2023-04-05T17:30:20;8.70;99.90
36790;DHT22;22740;52.182;8.780;2023-04-05T17:36:22;8.30;99.90
36790;DHT22;22740;52.182;8.780;2023-04-05T17:42:24;8.00;99.90
36790;DHT22;22740;52.182;8.780;2023-04-05T17:48:26;7.90;99.90
36790;DHT22;22740;52.182;8.780;2023-04-05T17:54:30;7.70;99.90
36790;DHT22;22740;52.182;8.780;2023-04-05T18:00:34;7.50;99.90
36790;DHT22;22740;52.182;8.780;2023-04-05T18:06:36;7.30;99.90
36790;DHT22;22740;52.182;8.780;2023-04-05T18:12:38;7.10;99.90
36790;DHT22;22740;52.182;8.780;2023-04-05T18:18:41;7.00;99.90
36790;DHT22;22740;52.182;8.780;2023-04-05T18:24:43;6.80;99.90
36790;DHT22;22740;52.182;8.780;2023-04-05T18:30:47;6.60;99.90
36790;DHT22;22740;52.182;8.780;2023-04-05T18:36:51;6.50;99.90
36790;DHT22;22740;52.182;8.780;2023-04-05T18:42:53;6.30;99.90
36790;DHT22;22740;52.182;8.780;2023-04-05T18:48:55;6.20;99.90
36790;DHT22;22740;52.182;8.780;2023-04-05T18:54:56;6.20;99.90
36790;DHT22;22740;52.182;8.780;2023-04-05T19:01:03;6.10;99.90
36790;DHT22;22740;52.182;8.780;2023-04-05T19:07:05;5.90;99.90
36790;DHT22;22740;52.182;8.780;2023-04-05T19:13:07;5.80;99.90
36790;DHT22;22740;52.182;8.780;2023-04-05T19:19:09;5.70;99.90
36790;DHT22;22740;52.182;8.780;2023-04-05T19:25:11;5.50;99.90
36790;DHT22;22740;52.182;8.780;2023-04-05T19:31:13;5.50;99.90
36790;DHT22;22740;52.182;8.780;2023-04-05T19:37:16;5.40;99.90
36790;DHT22;22740;52.182;8.780;2023-04-05T19:43:18;5.30;99.90
36790;DHT22;22740;52.182;8.780;2023-04-05T19:49:28;5.10;99.90
36790;DHT22;22740;52.182;8.780;2023-04-05T19:55:37;5.10;99.90
36790;DHT22;22740;52.182;8.780;2023-04-05T20:01:40;5.00;99.90
36790;DHT22;22740;52.182;8.780;2023-04-05T20:07:42;4.80;99.90
36790;DHT22;22740;52.182;8.780;2023-04-05T20:13:47;4.80;99.90
36790;DHT22;22740;52.182;8.780;2023-04-05T20:19:55;4.70;99.90
36790;DHT22;22740;52.182;8.780;2023-04-05T20:25:57;4.70;99.90
36790;DHT22;22740;52.182;8.780;2023-04-05T20:32:00;4.60;99.90
36790;DHT22;22740;52.182;8.780;2023-04-05T20:38:02;4.40;99.90
36790;DHT22;22740;52.182;8.780;2023-04-05T20:44:04;4.40;99.90
36790;DHT22;22740;52.182;8.780;2023-04-05T20:50:06;4.40;99.90
36790;DHT22;22740;52.182;8.780;2023-04-05T20:56:09;4.40;99.90
36790;DHT22;22740;52.182;8.780;2023-04-05T21:02:11;4.30;99.90
36790;DHT22;22740;52.182;8.780;2023-04-05T21:08:14;4.30;99.90
36790;DHT22;22740;52.182;8.780;2023-04-05T21:14:17;4.10;99.90
36790;DHT22;22740;52.182;8.780;2023-04-05T21:20:18;3.90;99.90
36790;DHT22;22740;52.182;8.780;2023-04-05T21:26:20;3.70;99.90
36790;DHT22;22740;52.182;8.780;2023-04-05T21:32:22;3.60;99.90
36790;DHT22;22740;52.182;8.780;2023-04-05T21:38:24;3.70;99.90
36790;DHT22;22740;52.182;8.780;2023-04-05T21:44:26;3.70;99.90
36790;DHT22;22740;52.182;8.780;2023-04-05T21:50:28;3.30;99.90
36790;DHT22;22740;52.182;8.780;2023-04-05T21:56:30;3.30;99.90
36790;DHT22;22740;52.182;8.780;2023-04-05T22:02:32;3.40;99.90
36790;DHT22;22740;52.182;8.780;2023-04-05T22:08:34;3.50;99.90
36790;DHT22;22740;52.182;8.780;2023-04-05T22:14:36;3.60;99.90
36790;DHT22;22740;52.182;8.780;2023-04-05T22:20:38;3.40;99.90
36790;DHT22;22740;52.182;8.780;2023-04-05T22:26:40;3.30;99.90
36790;DHT22;22740;52.182;8.780;2023-04-05T22:32:42;3.10;99.90
36790;DHT22;22740;52.182;8.780;2023-04-05T22:38:44;3.00;99.90
36790;DHT22;22740;52.182;8.780;2023-04-05T22:44:46;2.90;99.90
36790;DHT22;22740;52.182;8.780;2023-04-05T22:50:48;2.90;99.90
36790;DHT22;22740;52.182;8.780;2023-04-05T22:56:50;2.90;99.90
36790;DHT22;22740;52.182;8.780;2023-04-05T23:02:52;2.90;99.90
36790;DHT22;22740;52.182;8.780;2023-04-05T23:08:54;2.80;99.90
36790;DHT22;22740;52.182;8.780;2023-04-05T23:14:56;2.60;99.90
36790;DHT22;22740;52.182;8.780;2023-04-05T23:20:58;2.30;99.90
36790;DHT22;22740;52.182;8.780;2023-04-05T23:27:00;2.30;99.90
36790;DHT22;22740;52.182;8.780;2023-04-05T23:33:02;2.40;99.90
36790;DHT22;22740;52.182;8.780;2023-04-05T23:39:04;2.30;99.90
36790;DHT22;22740;52.182;8.780;2023-04-05T23:45:07;2.40;99.90
36790;DHT22;22740;52.182;8.780;2023-04-05T23:51:11;2.60;99.90
36790;DHT22;22740;52.182;8.780;2023-04-05T23:57:13;2.60;99.90
